Time;durP1;ratioP1;P1;durP2;ratioP2;P2;SDS_P1;SDS_P2;PMS_P1;PMS_P2;Temp;Humidity;BMP_temperature;BMP_pressure;BME280_temperature;BME280_humidity;BME280_pressure;Samples;Min_cycle;Max_cycle;Signal;HPM_P1;HPM_P2
2022/08/24 00:01:15;;;;;;;19.17;17.17;;;538.40;2406.40;;;;;;5036258;28;20029;-84
2022/08/24 00:03:44;;;;;;;19.20;17.08;;;538.50;2406.40;;;;;;5082819;28;20083;-82
2022/08/24 00:06:13;;;;;;;20.40;18.00;;;538.50;2406.40;;;;;;5050026;28;20064;-82
2022/08/24 00:08:40;;;;;;;19.55;17.10;;;538.40;2406.40;;;;;;5049820;28;20470;-83
2022/08/24 00:11:07;;;;;;;21.88;17.38;;;538.40;2406.40;;;;;;5053045;28;20024;-85
2022/08/24 00:13:35;;;;;;;18.83;16.77;;;563.20;2432.00;;;;;;5042707;28;20079;-84
2022/08/24 00:16:01;;;;;;;18.27;16.27;;;538.40;2406.40;;;;;;5068092;28;20029;-84
2022/08/24 00:18:27;;;;;;;17.15;15.35;;;563.30;2432.00;;;;;;5069324;28;20458;-82
2022/08/24 00:20:54;;;;;;;20.40;16.65;;;538.50;2406.40;;;;;;5076276;28;20017;-85
2022/08/24 00:23:20;;;;;;;18.42;15.75;;;538.50;2406.40;;;;;;5052403;28;20025;-84
2022/08/24 00:25:46;;;;;;;17.65;15.55;;;538.50;2406.40;;;;;;5054360;28;20477;-83
2022/08/24 00:28:12;;;;;;;16.73;14.98;;;538.50;2406.40;;;;;;5052425;28;20025;-83
2022/08/24 00:30:39;;;;;;;16.85;15.13;;;538.50;2406.40;;;;;;5049569;28;20111;-83
2022/08/24 00:33:07;;;;;;;17.10;15.25;;;538.50;2406.40;;;;;;5077145;28;20047;-84
2022/08/24 00:35:33;;;;;;;17.23;15.43;;;538.50;2406.40;;;;;;5050517;28;20049;-84
2022/08/24 00:37:58;;;;;;;17.40;15.57;;;538.50;2406.40;;;;;;5047044;28;20036;-83
2022/08/24 00:40:34;;;;;;;18.27;15.60;;;538.50;2406.40;;;;;;5067820;28;20030;-85
2022/08/24 00:43:03;;;;;;;18.92;16.05;;;563.20;2432.00;;;;;;5068210;28;20025;-84
2022/08/24 00:45:47;;;;;;;27.95;16.88;;;538.50;2406.40;;;;;;5039888;28;20041;-84
2022/08/24 00:48:26;;;;;;;16.60;14.90;;;563.20;2432.00;;;;;;5040865;28;20033;-84
2022/08/24 00:50:59;;;;;;;18.88;15.13;;;538.50;2406.40;;;;;;5051871;28;20052;-85
2022/08/24 00:53:31;;;;;;;17.40;15.60;;;563.20;2432.00;;;;;;5035386;28;20025;-84
2022/08/24 00:56:01;;;;;;;18.70;16.80;;;563.20;2432.00;;;;;;5038934;28;20039;-83
2022/08/24 00:58:37;;;;;;;18.50;16.52;;;538.50;2406.40;;;;;;5051918;28;20037;-84
2022/08/24 01:01:06;;;;;;;23.52;16.83;;;538.50;2406.40;;;;;;5035097;28;20379;-84
2022/08/24 01:03:34;;;;;;;17.92;16.00;;;538.50;2406.40;;;;;;5043549;28;20028;-85
2022/08/24 01:06:01;;;;;;;19.98;17.88;;;563.20;2432.00;;;;;;5048913;28;20037;-85
2022/08/24 01:08:27;;;;;;;20.08;16.67;;;563.30;2432.00;;;;;;5054662;28;20025;-83
2022/08/24 01:11:00;;;;;;;18.10;15.50;;;563.20;2432.00;;;;;;5047901;28;20037;-82
2022/08/24 01:13:27;;;;;;;17.77;15.98;;;563.20;2432.00;;;;;;5045537;28;20053;-83
2022/08/24 01:15:58;;;;;;;21.67;17.02;;;563.20;2432.00;;;;;;5045210;28;20029;-83
2022/08/24 01:21:43;;;;;;;14.02;12.50;;;563.20;2432.00;;;;;;5039997;28;20040;-82
2022/08/24 01:24:11;;;;;;;14.50;11.68;;;563.20;2432.00;;;;;;5034419;28;20025;-83
2022/08/24 01:26:47;;;;;;;13.95;11.73;;;563.20;2432.00;;;;;;5044531;28;20037;-84
2022/08/24 01:29:18;;;;;;;14.77;12.95;;;563.20;2432.00;;;;;;5080267;28;20028;-85
2022/08/24 01:31:45;;;;;;;13.18;11.88;;;563.20;2432.00;;;;;;5048343;28;20036;-84
2022/08/24 01:34:12;;;;;;;14.20;12.40;;;538.50;2406.40;;;;;;5035901;28;21109;-85
2022/08/24 01:36:44;;;;;;;13.35;11.98;;;563.20;2432.00;;;;;;5066518;28;20029;-84
2022/08/24 01:39:15;;;;;;;15.95;12.18;;;563.20;2432.00;;;;;;5076200;28;20028;-85
2022/08/24 01:41:42;;;;;;;16.40;12.10;;;538.50;2406.40;;;;;;5038339;28;20040;-84
2022/08/24 01:44:08;;;;;;;16.23;11.68;;;538.50;2406.40;;;;;;5033253;28;20029;-83
2022/08/24 01:46:34;;;;;;;13.07;11.70;;;538.50;2406.40;;;;;;5035094;28;20029;-84
2022/08/24 01:49:01;;;;;;;14.90;11.63;;;538.50;2406.40;;;;;;5047355;28;20025;-83
2022/08/24 01:51:32;;;;;;;14.35;12.30;;;538.40;2406.40;;;;;;5066614;28;20119;-81
2022/08/24 01:54:01;;;;;;;16.10;11.95;;;538.50;2406.40;;;;;;5071116;28;20417;-83
2022/08/24 01:56:27;;;;;;;15.30;12.93;;;538.40;2406.40;;;;;;5044262;28;20091;-85
2022/08/24 01:58:54;;;;;;;16.63;12.82;;;;;;;;;;5074799;28;20030;-83
2022/08/24 02:01:20;;;;;;;17.08;12.77;;;538.40;2406.40;;;;;;5050295;28;20021;-84
2022/08/24 02:03:46;;;;;;;16.02;12.20;;;;;;;;;;5052003;28;20033;-84
2022/08/24 02:06:12;;;;;;;15.00;13.00;;;;;;;;;;5045684;28;20081;-83
2022/08/24 02:08:39;;;;;;;15.90;13.05;;;;;;;;;;5047026;28;20471;-83
2022/08/24 02:11:08;;;;;;;15.32;13.73;;;;;;;;;;5050907;28;20028;-84
2022/08/24 02:13:35;;;;;;;14.98;13.07;;;;;;;;;;5052769;28;20029;-83
2022/08/24 02:16:03;;;;;;;16.90;13.80;;;;;;;;;;5036234;28;20022;-83
2022/08/24 02:18:30;;;;;;;18.77;13.80;;;;;;;;;;5051090;28;20022;-83
2022/08/24 02:20:57;;;;;;;16.75;14.95;;;;;;;;;;5051135;28;20559;-84
2022/08/24 02:23:23;;;;;;;18.10;14.73;;;;;;;;;;5051994;28;20141;-83
2022/08/24 02:25:51;;;;;;;17.38;14.88;;;;;;;;;;5040496;28;20041;-83
2022/08/24 02:28:19;;;;;;;17.55;15.73;;;;;;;;;;5045269;28;20075;-84
2022/08/24 02:30:47;;;;;;;18.90;16.02;;;;;;;;;;5050062;28;20029;-84
2022/08/24 02:33:13;;;;;;;18.35;15.48;;;;;;;;;;5043842;28;20018;-86
2022/08/24 02:35:41;;;;;;;22.35;16.73;;;;;;;;;;5037761;28;20091;-82
2022/08/24 02:38:08;;;;;;;21.40;16.98;;;;;;;;;;5032427;28;20049;-82
2022/08/24 02:40:34;;;;;;;22.17;16.55;;;538.00;2406.40;;;;;;5037664;28;20414;-84
2022/08/24 02:43:00;;;;;;;20.30;16.50;;;;;;;;;;5049599;28;20083;-85
2022/08/24 02:45:28;;;;;;;22.27;15.90;;;;;;;;;;5040912;28;20111;-84
2022/08/24 02:47:55;;;;;;;20.10;16.52;;;;;;;;;;5049716;28;20111;-84
2022/08/24 02:50:21;;;;;;;21.63;16.73;;;;;;;;;;5052504;28;20028;-84
2022/08/24 02:52:47;;;;;;;23.52;17.83;;;;;;;;;;5050617;28;20055;-83
2022/08/24 02:55:15;;;;;;;24.25;18.15;;;;;;;;;;5048817;28;20084;-83
2022/08/24 02:57:41;;;;;;;24.90;18.38;;;;;;;;;;5046483;28;20037;-84
2022/08/24 03:00:10;;;;;;;21.83;19.35;;;;;;;;;;5036955;28;20500;-84
2022/08/24 03:02:36;;;;;;;22.98;18.25;;;;;;;;;;5033807;28;20022;-86
2022/08/24 03:05:03;;;;;;;22.65;18.90;;;;;;;;;;5052343;28;20111;-82
2022/08/24 03:07:33;;;;;;;23.92;18.83;;;;;;;;;;5037696;28;20040;-85
2022/08/24 03:10:00;;;;;;;24.58;19.30;;;;;;;;;;5041594;28;20025;-83
2022/08/24 03:12:27;;;;;;;24.50;20.10;;;;;;;;;;5042306;28;20082;-86
2022/08/24 03:14:53;;;;;;;26.65;20.98;;;;;;;;;;5047534;28;20367;-82
2022/08/24 03:17:19;;;;;;;29.25;23.45;;;;;;;;;;5055078;28;20533;-83
2022/08/24 03:19:46;;;;;;;29.15;23.92;;;;;;;;;;5038060;28;20029;-81
2022/08/24 03:22:13;;;;;;;28.10;22.15;;;;;;;;;;5046081;28;20079;-81
2022/08/24 03:24:40;;;;;;;26.70;22.55;;;;;;;;;;5044742;28;20422;-82
2022/08/24 03:27:06;;;;;;;31.50;23.88;;;;;;;;;;5051995;28;20451;-85
2022/08/24 03:29:35;;;;;;;28.88;22.77;;;;;;;;;;5052705;28;20073;-81
2022/08/24 03:32:01;;;;;;;28.63;23.48;;;537.70;2406.40;;;;;;5046713;28;20025;-80
2022/08/24 03:34:27;;;;;;;33.08;24.35;;;512.90;2380.80;;;;;;5052620;28;20041;-81
2022/08/24 03:36:53;;;;;;;32.28;24.83;;;512.70;2380.80;;;;;;5055422;28;20466;-82
2022/08/24 03:39:19;;;;;;;28.85;23.80;;;512.80;2380.80;;;;;;5054011;28;20028;-81
2022/08/24 03:41:45;;;;;;;29.58;23.02;;;512.80;2380.80;;;;;;5053467;28;20026;-80
2022/08/24 03:44:11;;;;;;;28.58;23.17;;;512.90;2380.80;;;;;;5053794;28;20751;-81
2022/08/24 03:46:38;;;;;;;31.50;26.27;;;512.90;2380.80;;;;;;5047433;28;20069;-83
2022/08/24 03:49:07;;;;;;;29.45;23.40;;;512.80;2380.80;;;;;;5053006;28;20029;-81
2022/08/24 03:51:34;;;;;;;27.67;23.30;;;512.80;2380.80;;;;;;5055213;28;20032;-81
2022/08/24 03:54:02;;;;;;;30.00;23.65;;;512.80;2380.80;;;;;;5046657;28;20402;-84
2022/08/24 03:56:29;;;;;;;28.08;23.23;;;512.90;2380.80;;;;;;5040850;28;20112;-82
2022/08/24 03:58:56;;;;;;;26.67;22.40;;;512.80;2380.80;;;;;;5075424;28;20025;-82
2022/08/24 04:01:23;;;;;;;27.33;22.73;;;512.90;2380.80;;;;;;5038396;28;20025;-83
2022/08/24 04:03:49;;;;;;;26.27;22.98;;;512.90;2380.80;;;;;;5068378;28;20083;-83
2022/08/24 04:06:17;;;;;;;28.55;23.60;;;538.30;2406.40;;;;;;5076269;28;20062;-83
2022/08/24 04:08:45;;;;;;;33.13;24.10;;;512.90;2380.80;;;;;;5052014;28;20125;-82
2022/08/24 04:11:14;;;;;;;28.95;23.13;;;512.90;2380.80;;;;;;5050645;28;20382;-83
2022/08/24 04:13:43;;;;;;;29.67;21.80;;;512.90;2380.80;;;;;;5051646;28;20437;-81
2022/08/24 04:16:13;;;;;;;29.38;20.65;;;512.70;2380.80;;;;;;5054803;28;20123;-82
2022/08/24 04:18:40;;;;;;;29.83;23.30;;;537.60;2406.40;;;;;;5048114;28;20029;-83
2022/08/24 04:21:06;;;;;;;31.88;24.02;;;512.90;2380.80;;;;;;5044290;28;20037;-83
2022/08/24 04:23:34;;;;;;;29.40;22.17;;;512.90;2380.80;;;;;;5081173;28;20075;-82
2022/08/24 04:26:04;;;;;;;29.33;21.98;;;512.80;2304.00;;;;;;5053263;28;20105;-83
2022/08/24 04:28:30;;;;;;;30.63;21.17;;;512.90;2380.80;;;;;;5052053;28;20033;-82
2022/08/24 04:30:56;;;;;;;25.58;20.63;;;512.90;2380.80;;;;;;5051224;28;20032;-84
2022/08/24 04:33:22;;;;;;;32.65;24.35;;;512.90;2380.80;;;;;;5045391;28;20419;-82
2022/08/24 04:35:49;;;;;;;30.90;22.05;;;512.90;2380.80;;;;;;5046339;28;20151;-82
2022/08/24 04:38:18;;;;;;;30.42;21.60;;;512.90;2380.80;;;;;;5036648;28;20033;-82
2022/08/24 04:40:45;;;;;;;24.27;19.55;;;512.90;2380.80;;;;;;5067610;28;20034;-82
2022/08/24 04:43:15;;;;;;;25.70;19.35;;;537.60;2406.40;;;;;;5082200;28;20025;-82
2022/08/24 04:45:44;;;;;;;25.85;19.98;;;537.60;2406.40;;;;;;5050277;28;20048;-82
2022/08/24 04:48:14;;;;;;;22.13;18.55;;;512.90;2380.80;;;;;;5049417;28;20891;-83
2022/08/24 04:50:42;;;;;;;26.42;20.67;;;537.70;2406.40;;;;;;5040920;28;20067;-80
2022/08/24 04:53:12;;;;;;;32.45;23.45;;;512.80;2380.80;;;;;;5041351;28;20029;-81
2022/08/24 04:55:48;;;;;;;32.83;22.75;;;537.70;2406.40;;;;;;5045367;28;20044;-82
2022/08/24 04:58:15;;;;;;;33.58;23.83;;;537.80;2406.40;;;;;;5041297;28;20063;-82
2022/08/24 05:00:44;;;;;;;33.42;24.40;;;537.90;2406.40;;;;;;5073657;28;20047;-82
2022/08/24 05:03:10;;;;;;;37.72;23.98;;;537.90;2406.40;;;;;;5048751;28;20103;-81
2022/08/24 05:05:48;;;;;;;27.75;24.55;;;537.90;2150.40;;;;;;5053809;28;20029;-81
2022/08/24 05:08:15;;;;;;;29.85;23.95;;;537.90;2406.40;;;;;;5052682;28;20064;-82
2022/08/24 05:10:43;;;;;;;32.50;24.73;;;538.00;2406.40;;;;;;5044290;28;20395;-81
2022/08/24 05:13:10;;;;;;;29.95;24.30;;;537.90;2406.40;;;;;;5034186;28;20514;-82
2022/08/24 05:15:39;;;;;;;31.42;25.27;;;538.00;2406.40;;;;;;5036232;28;20111;-83
2022/08/24 05:18:07;;;;;;;32.45;25.80;;;538.10;2406.40;;;;;;5043788;28;20021;-83
2022/08/24 05:20:37;;;;;;;32.80;25.00;;;538.10;2406.40;;;;;;5037074;28;20079;-83
2022/08/24 05:23:03;;;;;;;32.22;24.98;;;538.00;2406.40;;;;;;5032863;28;20455;-82
2022/08/24 05:25:29;;;;;;;28.73;23.90;;;538.10;2406.40;;;;;;5048702;28;20033;-82
2022/08/24 05:27:56;;;;;;;29.92;25.15;;;538.10;2406.40;;;;;;5053679;28;20040;-82
2022/08/24 05:30:22;;;;;;;37.08;26.83;;;538.20;2406.40;;;;;;5053387;28;20025;-81
2022/08/24 05:32:50;;;;;;;33.72;25.55;;;538.20;2406.40;;;;;;5047491;28;20026;-82
2022/08/24 05:35:16;;;;;;;35.38;26.77;;;538.20;2406.40;;;;;;5043128;28;20049;-84
2022/08/24 05:37:42;;;;;;;36.72;28.08;;;538.20;2406.40;;;;;;5045875;28;20028;-84
2022/08/24 05:40:11;;;;;;;31.48;27.10;;;538.20;2406.40;;;;;;5048069;28;20028;-82
2022/08/24 05:42:38;;;;;;;33.33;26.63;;;538.20;2406.40;;;;;;5050069;28;20043;-84
2022/08/24 05:45:05;;;;;;;35.30;26.30;;;538.20;2406.40;;;;;;5033371;28;20036;-83
2022/08/24 05:47:33;;;;;;;31.50;26.77;;;538.20;2406.40;;;;;;5046296;28;20116;-83
2022/08/24 05:50:00;;;;;;;36.10;28.75;;;538.20;2406.40;;;;;;5043228;28;20033;-83
2022/08/24 05:52:26;;;;;;;32.78;26.10;;;538.40;2406.40;;;;;;5053007;28;20469;-83
2022/08/24 05:54:54;;;;;;;32.55;26.02;;;538.40;2406.40;;;;;;5051675;28;20112;-82
2022/08/24 05:57:22;;;;;;;34.45;26.92;;;538.50;2406.40;;;;;;5034837;28;20031;-84
2022/08/24 05:59:49;;;;;;;33.15;26.83;;;538.50;2406.40;;;;;;5035716;28;20037;-84
2022/08/24 06:02:17;;;;;;;33.45;26.63;;;538.50;2406.40;;;;;;5075459;28;20028;-82
2022/08/24 06:04:44;;;;;;;31.90;28.05;;;538.50;2406.40;;;;;;5045482;28;20047;-84
2022/08/24 06:07:11;;;;;;;32.47;27.02;;;563.20;2432.00;;;;;;5045071;28;20072;-84
2022/08/24 06:09:38;;;;;;;31.67;27.75;;;563.30;2432.00;;;;;;5043870;28;20029;-82
2022/08/24 06:12:04;;;;;;;31.98;27.75;;;563.30;2432.00;;;;;;5047907;28;20212;-83
2022/08/24 06:14:33;;;;;;;32.63;26.35;;;563.50;2432.00;;;;;;5048005;28;20029;-83
2022/08/24 06:17:02;;;;;;;33.05;27.50;;;563.50;2432.00;;;;;;5039902;28;20053;-84
2022/08/24 06:19:28;;;;;;;30.30;27.10;;;563.40;2432.00;;;;;;5046396;28;20041;-82
2022/08/24 06:21:55;;;;;;;30.23;26.60;;;563.40;2432.00;;;;;;5068227;28;20025;-84
2022/08/24 06:27:21;;;;;;;31.40;26.95;;;563.40;2432.00;;;;;;5047462;28;20056;-83
2022/08/24 06:30:02;;;;;;;31.25;26.50;;;563.50;2432.00;;;;;;5046155;28;20033;-84
2022/08/24 06:32:29;;;;;;;33.25;28.25;;;563.50;2432.00;;;;;;5045405;28;20116;-83
2022/08/24 06:34:56;;;;;;;30.77;27.48;;;563.50;2432.00;;;;;;5044676;28;20141;-84
2022/08/24 06:37:26;;;;;;;31.20;26.95;;;563.30;2432.00;;;;;;5047006;28;20029;-82
2022/08/24 06:39:53;;;;;;;32.05;26.73;;;563.60;2432.00;;;;;;5043911;28;20108;-83
2022/08/24 06:42:19;;;;;;;41.00;27.88;;;563.80;2432.00;;;;;;5044991;28;20040;-82
2022/08/24 06:44:47;;;;;;;29.95;26.75;;;563.80;2432.00;;;;;;5042389;28;20402;-84
2022/08/24 06:47:13;;;;;;;31.90;25.23;;;563.80;2432.00;;;;;;5040502;28;20034;-84
2022/08/24 06:49:38;;;;;;;30.95;26.90;;;563.90;2432.00;;;;;;5071559;28;20029;-84
2022/08/24 06:52:06;;;;;;;30.58;27.30;;;563.90;2432.00;;;;;;5040150;28;20374;-82
2022/08/24 06:54:32;;;;;;;29.23;26.13;;;563.90;2432.00;;;;;;5048174;28;20040;-81
2022/08/24 06:56:58;;;;;;;28.48;25.48;;;564.10;2432.00;;;;;;5048656;28;20024;-85
2022/08/24 06:59:26;;;;;;;33.53;26.85;;;564.10;2432.00;;;;;;5050535;28;20108;-82
2022/08/24 07:01:54;;;;;;;27.83;24.38;;;564.10;2432.00;;;;;;5036393;28;20025;-83
2022/08/24 07:04:23;;;;;;;28.48;25.50;;;564.10;2432.00;;;;;;5044660;28;20040;-84
2022/08/24 07:06:49;;;;;;;29.42;25.77;;;589.00;2432.00;;;;;;5040985;28;20487;-84
2022/08/24 07:09:17;;;;;;;28.30;25.27;;;589.50;2432.00;;;;;;5043019;28;20048;-84
2022/08/24 07:11:43;;;;;;;27.52;23.38;;;589.10;2432.00;;;;;;5036010;28;20030;-83
2022/08/24 07:14:08;;;;;;;27.08;23.90;;;564.10;2432.00;;;;;;5041625;28;20526;-83
2022/08/24 07:16:36;;;;;;;26.77;24.02;;;564.10;2432.00;;;;;;5032859;28;20036;-86
2022/08/24 07:19:04;;;;;;;26.30;23.25;;;564.10;2432.00;;;;;;5042083;28;20226;-85
2022/08/24 07:21:30;;;;;;;29.38;24.77;;;564.10;2432.00;;;;;;5038746;28;20455;-84
2022/08/24 07:23:58;;;;;;;30.42;25.67;;;564.10;2432.00;;;;;;5039527;28;20036;-84
2022/08/24 07:26:26;;;;;;;27.65;24.25;;;588.80;2432.00;;;;;;5042625;28;20041;-85
2022/08/24 07:29:03;;;;;;;33.03;26.67;;;588.80;2432.00;;;;;;5069590;28;20026;-84
2022/08/24 07:31:33;;;;;;;26.42;23.50;;;588.80;2432.00;;;;;;5038633;28;20450;-84
2022/08/24 07:33:59;;;;;;;32.95;27.65;;;589.00;2432.00;;;;;;5042184;28;20489;-84
2022/08/24 07:36:26;;;;;;;28.90;25.20;;;589.10;2432.00;;;;;;5038981;28;20446;-85
2022/08/24 07:38:56;;;;;;;31.90;26.05;;;589.30;2432.00;;;;;;5040774;28;20473;-84
2022/08/24 07:41:26;;;;;;;28.60;25.10;;;589.50;2432.00;;;;;;5041258;28;20132;-84
2022/08/24 07:43:53;;;;;;;34.67;25.00;;;589.50;2432.00;;;;;;5040566;28;20437;-85
2022/08/24 07:46:22;;;;;;;27.90;24.55;;;589.50;2432.00;;;;;;5046906;28;20094;-85
2022/08/24 07:48:49;;;;;;;29.75;24.35;;;589.70;2432.00;;;;;;5041772;28;20112;-86
2022/08/24 07:51:17;;;;;;;30.20;23.65;;;614.40;2432.00;;;;;;5043452;28;20116;-84
2022/08/24 07:53:43;;;;;;;25.75;22.80;;;589.70;2432.00;;;;;;5044961;28;20021;-86
2022/08/24 07:56:11;;;;;;;26.40;22.58;;;589.70;2432.00;;;;;;5046265;28;20025;-85
2022/08/24 07:58:37;;;;;;;24.63;21.40;;;589.50;2432.00;;;;;;5043548;28;20039;-86
2022/08/24 08:01:06;;;;;;;24.80;22.10;;;589.60;2432.00;;;;;;5046953;28;20032;-85
2022/08/24 08:03:32;;;;;;;24.42;21.83;;;589.60;2432.00;;;;;;5042709;28;20029;-85
2022/08/24 08:06:01;;;;;;;28.88;23.02;;;589.60;2432.00;;;;;;5036848;28;20029;-85
2022/08/24 08:08:28;;;;;;;25.27;22.02;;;589.60;2432.00;;;;;;5073604;28;20060;-84
2022/08/24 08:10:56;;;;;;;24.52;21.20;;;589.70;2432.00;;;;;;5039244;28;20029;-85
2022/08/24 08:13:24;;;;;;;25.45;22.33;;;589.60;2432.00;;;;;;5042025;28;20382;-83
2022/08/24 08:15:50;;;;;;;23.35;20.85;;;589.60;2432.00;;;;;;5048162;28;20029;-84
2022/08/24 08:18:18;;;;;;;22.98;20.33;;;589.60;2432.00;;;;;;5049903;28;20032;-84
2022/08/24 08:20:44;;;;;;;24.60;21.95;;;589.60;2432.00;;;;;;5076865;28;20365;-84
2022/08/24 08:25:56;;;;;;;29.00;22.25;;;589.60;2432.00;;;;;;5043772;28;20047;-85
2022/08/24 08:28:23;;;;;;;27.25;21.63;;;589.40;2432.00;;;;;;5077927;28;20030;-83
2022/08/24 08:30:51;;;;;;;28.25;22.73;;;589.70;2432.00;;;;;;5036692;28;20025;-86
2022/08/24 08:33:17;;;;;;;27.42;22.35;;;589.60;2432.00;;;;;;5067517;28;20029;-83
2022/08/24 08:35:43;;;;;;;26.88;23.00;;;589.70;2432.00;;;;;;5073796;28;20135;-84
2022/08/24 08:38:09;;;;;;;26.17;21.73;;;589.60;2432.00;;;;;;5045445;28;20108;-84
2022/08/24 08:40:44;;;;;;;29.95;22.58;;;589.70;2432.00;;;;;;5045744;28;21032;-83
2022/08/24 08:43:35;;;;;;;26.80;22.75;;;614.40;2432.00;;;;;;5038535;28;20096;-81
2022/08/24 08:46:35;;;;;;;25.88;21.27;;;614.40;2432.00;;;;;;5044604;28;20042;-83
2022/08/24 08:49:32;;;;;;;25.30;21.15;;;614.50;2432.00;;;;;;5050121;28;20029;-84
2022/08/24 08:52:10;;;;;;;23.55;20.40;;;614.50;2432.00;;;;;;5050419;28;20474;-82
2022/08/24 08:55:20;;;;;;;24.42;20.73;;;614.50;2432.00;;;;;;5034157;28;20117;-83
2022/08/24 08:58:10;;;;;;;24.90;21.42;;;614.60;2432.00;;;;;;5009137;28;20057;-84
2022/08/24 09:00:50;;;;;;;27.55;21.88;;;614.60;2432.00;;;;;;5042420;28;20034;-82
2022/08/24 09:03:38;;;;;;;27.88;22.20;;;614.70;2432.00;;;;;;5041394;28;20032;-86
2022/08/24 09:06:39;;;;;;;26.02;22.05;;;614.50;2432.00;;;;;;5038781;28;20492;-84
2022/08/24 09:09:23;;;;;;;23.30;20.77;;;614.60;2432.00;;;;;;5040108;28;20029;-84
2022/08/24 09:12:07;;;;;;;27.98;24.02;;;614.60;2432.00;;;;;;5034028;28;20063;-82
2022/08/24 09:14:45;;;;;;;25.77;21.10;;;614.60;2432.00;;;;;;5036127;28;20029;-81
2022/08/24 09:17:50;;;;;;;24.33;21.52;;;614.60;2432.00;;;;;;5043254;28;20025;-83
2022/08/24 09:20:47;;;;;;;29.30;22.42;;;614.50;2432.00;;;;;;5032535;28;20466;-83
2022/08/24 09:23:45;;;;;;;27.48;22.88;;;614.70;2432.00;;;;;;5054732;28;20074;-86
2022/08/24 09:26:19;;;;;;;24.98;21.67;;;614.70;2432.00;;;;;;5040070;28;20037;-84
2022/08/24 09:29:09;;;;;;;27.73;21.23;;;614.70;2432.00;;;;;;5043536;28;20497;-84
2022/08/24 09:31:53;;;;;;;25.45;20.80;;;614.90;2432.00;;;;;;5073790;28;20030;-82
2022/08/24 09:34:32;;;;;;;23.35;20.30;;;614.90;2432.00;;;;;;5038332;28;20037;-82
2022/08/24 09:36:58;;;;;;;27.92;21.63;;;;;;;;;;5048467;28;20037;-83
2022/08/24 09:39:36;;;;;;;28.80;23.05;;;;;;;;;;5039376;28;20018;-82
2022/08/24 09:42:06;;;;;;;24.55;21.88;;;;;;;;;;5049849;28;20024;-82
2022/08/24 09:44:36;;;;;;;27.67;21.73;;;;;;;;;;5047006;28;20175;-82
2022/08/24 09:47:30;;;;;;;25.73;22.98;;;615.30;2432.00;;;;;;5036960;28;20050;-81
2022/08/24 09:50:18;;;;;;;24.17;20.92;;;615.30;2432.00;;;;;;5044952;28;20029;-82
2022/08/24 09:52:57;;;;;;;26.83;22.40;;;640.10;2432.00;;;;;;5038501;28;20391;-84
2022/08/24 09:56:00;;;;;;;24.85;21.20;;;640.40;2432.00;;;;;;5048713;28;20111;-85
2022/08/24 09:58:43;;;;;;;23.58;20.27;;;640.50;2432.00;;;;;;5052617;28;20585;-84
2022/08/24 10:01:30;;;;;;;23.95;21.20;;;;;;;;;;5047335;28;20033;-83
2022/08/24 10:04:14;;;;;;;23.75;20.45;;;;;;;;;;5028342;28;20033;-84
2022/08/24 10:06:40;;;;;;;24.38;21.02;;;;;;;;;;5046614;28;20026;-85
2022/08/24 10:09:14;;;;;;;23.20;20.60;;;;;;;;;;5050867;28;20470;-84
2022/08/24 10:11:43;;;;;;;24.75;20.83;;;;;;;;;;5046712;28;20021;-83
2022/08/24 10:14:24;;;;;;;24.33;21.02;;;;;;;;;;5047055;28;20063;-83
2022/08/24 10:17:00;;;;;;;29.70;21.50;;;;;;;;;;5049201;28;20025;-84
2022/08/24 10:19:48;;;;;;;21.95;19.52;;;640.70;2432.00;;;;;;5041012;28;20059;-84
2022/08/24 10:22:14;;;;;;;21.30;19.10;;;;;;;;;;5037856;28;20374;-84
2022/08/24 10:25:00;;;;;;;22.35;19.23;;;;;;;;;;5046336;28;20051;-84
2022/08/24 10:27:39;;;;;;;20.15;17.95;;;;;;;;;;5048105;28;20029;-82
2022/08/24 10:30:18;;;;;;;23.42;19.30;;;;;;;;;;5043202;28;20360;-84
2022/08/24 10:33:03;;;;;;;20.83;18.60;;;;;;;;;;5041844;28;20048;-83
2022/08/24 10:35:36;;;;;;;20.75;18.55;;;;;;;;;;5036361;28;20050;-82
2022/08/24 10:41:09;;;;;;;19.00;17.10;;;;;;;;;;5035894;28;20076;-84
2022/08/24 10:43:52;;;;;;;18.83;16.80;;;;;;;;;;5043142;28;20104;-82
2022/08/24 10:46:42;;;;;;;23.30;17.83;;;666.20;2432.00;;;;;;5037754;28;20069;-82
2022/08/24 10:49:34;;;;;;;20.83;17.27;;;666.30;2432.00;;;;;;5041805;28;20035;-81
2022/08/24 10:52:20;;;;;;;22.08;18.13;;;691.20;2432.00;;;;;;5042625;28;20033;-82
2022/08/24 10:54:47;;;;;;;20.52;18.40;;;691.40;2432.00;;;;;;5044247;28;20033;-81
2022/08/24 10:57:18;;;;;;;20.75;16.52;;;691.70;2432.00;;;;;;5045833;28;20134;-83
2022/08/24 11:00:05;;;;;;;21.52;19.20;;;691.30;2432.00;;;;;;5046639;28;20107;-82
2022/08/24 11:02:36;;;;;;;22.55;19.77;;;691.30;2432.00;;;;;;5050864;28;20025;-82
2022/08/24 11:05:07;;;;;;;19.90;17.15;;;691.20;2432.00;;;;;;5051983;28;20021;-82
2022/08/24 11:07:35;;;;;;;19.90;16.63;;;691.30;2432.00;;;;;;5048641;28;20049;-83
2022/08/24 11:10:05;;;;;;;20.00;15.93;;;691.30;2432.00;;;;;;5047182;28;20033;-85
2022/08/24 11:12:38;;;;;;;18.58;16.23;;;691.40;2432.00;;;;;;5047470;28;20034;-86
2022/08/24 11:15:16;;;;;;;18.50;16.45;;;691.70;2432.00;;;;;;5042576;28;20025;-85
2022/08/24 11:17:59;;;;;;;14.60;13.15;;;;;;;;;;5034187;28;20215;-84
2022/08/24 11:20:27;;;;;;;19.55;14.65;;;;;;;;;;5038283;28;20087;-84
2022/08/24 11:23:14;;;;;;;26.10;13.18;;;;;;;;;;5041085;28;20029;-86
2022/08/24 11:25:43;;;;;;;13.70;12.30;;;;;;;;;;5047379;28;20029;-83
2022/08/24 11:28:36;;;;;;;14.95;13.43;;;;;;;;;;5050813;28;20017;-83
2022/08/24 11:31:02;;;;;;;15.93;13.90;;;;;;;;;;5026059;28;20386;-84
2022/08/24 11:33:28;;;;;;;16.35;14.07;;;;;;;;;;5052250;28;20047;-86
2022/08/24 11:35:55;;;;;;;15.65;13.50;;;;;;;;;;5035439;28;20106;-84
2022/08/24 11:38:26;;;;;;;16.02;13.60;;;;;;;;;;5044262;28;20367;-84
2022/08/24 11:41:13;;;;;;;15.77;13.90;;;;;;;;;;5042484;28;20018;-83
2022/08/24 11:43:40;;;;;;;16.45;14.75;;;;;;;;;;5043652;28;20762;-83
2022/08/24 11:46:07;;;;;;;15.90;13.55;;;;;;;;;;5051415;28;20036;-83
2022/08/24 11:49:03;;;;;;;17.55;15.20;;;;;;;;;;5037547;28;20593;-83
2022/08/24 11:51:34;;;;;;;15.73;14.13;;;;;;;;;;5038037;28;20033;-82
2022/08/24 11:54:09;;;;;;;15.57;13.68;;;;;;;;;;5044504;28;20049;-85
2022/08/24 11:56:58;;;;;;;17.45;15.65;;;;;;;;;;5047254;28;20087;-81
2022/08/24 11:59:26;;;;;;;18.48;16.67;;;;;;;;;;5047043;28;20032;-83
2022/08/24 12:01:59;;;;;;;16.23;14.48;;;;;;;;;;5047359;28;20022;-85
2022/08/24 12:04:33;;;;;;;20.45;15.70;;;;;;;;;;5050376;28;20028;-84
2022/08/24 12:07:22;;;;;;;20.40;16.17;;;;;;;;;;5052830;28;20033;-84
2022/08/24 12:10:07;;;;;;;16.58;14.13;;;;;;;;;;5050079;28;20045;-83
2022/08/24 12:12:34;;;;;;;16.25;14.35;;;;;;;;;;5048736;28;20029;-81
2022/08/24 12:15:00;;;;;;;23.60;17.30;;;;;;;;;;5039541;28;20359;-82
2022/08/24 12:17:46;;;;;;;18.73;16.73;;;;;;;;;;5040704;28;20044;-82
2022/08/24 12:20:31;;;;;;;20.42;18.13;;;;;;;;;;5047117;28;20041;-84
2022/08/24 12:23:00;;;;;;;19.42;16.67;;;;;;;;;;5035446;28;20115;-84
2022/08/24 12:28:17;;;;;;;22.55;16.15;;;;;;;;;;5049180;28;20040;-82
2022/08/24 12:30:44;;;;;;;21.73;16.45;;;;;;;;;;5043022;28;20025;-82
2022/08/24 12:33:14;;;;;;;16.58;14.40;;;717.50;2432.00;;;;;;5041060;28;20036;-82
2022/08/24 12:35:49;;;;;;;14.95;13.27;;;;;;;;;;5047153;28;20055;-81
2022/08/24 12:38:31;;;;;;;16.50;14.75;;;;;;;;;;5044852;28;20451;-84
2022/08/24 12:41:10;;;;;;;16.88;14.90;;;;;;;;;;5042979;28;20021;-83
2022/08/24 12:43:43;;;;;;;16.35;14.43;;;;;;;;;;5049899;28;20054;-84
2022/08/24 12:46:12;;;;;;;17.52;15.55;;;;;;;;;;5062812;28;20044;-83
2022/08/24 12:48:49;;;;;;;17.20;13.80;;;;;;;;;;5049627;28;20025;-82
2022/08/24 12:51:20;;;;;;;15.52;13.88;;;;;;;;;;5049375;28;20502;-83
2022/08/24 12:54:11;;;;;;;17.77;14.30;;;;;;;;;;5044636;28;20017;-82
2022/08/24 12:56:49;;;;;;;18.37;13.10;;;;;;;;;;5045638;28;20273;-83
2022/08/24 12:59:22;;;;;;;19.13;17.08;;;;;;;;;;5049071;28;20270;-84
2022/08/24 13:02:07;;;;;;;15.73;14.02;;;;;;;;;;5038857;28;20547;-83
2022/08/24 13:04:58;;;;;;;17.67;15.55;;;768.60;2406.40;;;;;;5043813;28;20018;-83
2022/08/24 13:07:28;;;;;;;20.42;15.63;;;;;;;;;;5049349;28;20041;-83
2022/08/24 13:09:57;;;;;;;18.95;16.23;;;;;;;;;;5048997;28;20025;-84
2022/08/24 13:12:43;;;;;;;16.50;14.80;;;;;;;;;;5044924;28;20021;-83
2022/08/24 13:15:19;;;;;;;16.48;14.02;;;;;;;;;;5039814;28;20028;-84